Terminal Aerodrome Forecast
Issued by NWS

Home | Current Version | Previous Version | Text Only | Print | Product List | Glossary On
Versions: 1 2 3 4 5 6 7 8 9 10 11 12 13 14 15 16 17 18 19 20 21 22 23 24 25 26 27 28
000
FTUS44 KLIX 281126
TAFHDC
TAF
KHDC 281126Z 2812/0112 16006KT P6SM OVC008
     FM281600 17011G19KT P6SM BKN020
     FM282000 17013KT P6SM BKN035
     FM010500 17009KT P6SM OVC008=

USA.gov is the U.S. government's official web portal to all federal, state and local government web resources and services.